East Townsend, Ohio
Current Conditions -  °F | °C
As of 12:53 AM on Saturday 29 Nov 2014 (Local Time) from KLPR Reporting Station
Overcast Overcast  
Wind Chill: 20°   Ceiling: 7000
Heat Index: 29°   Visibility: 10mi
Dew Point: 20°   Wind: 9mph
Humidity: 69%   Direction: 180°S
Pressure: 30.11"   Gusts: NA
Location:  41.2571°N, 82.4875°W
Report Text: KLPR 290553Z AUTO 18008KT 10SM OVC070 M02/M07 A3011 RMK AO2 SLP205 T10171067 11017 21039 56010 TSNO
Loading
Personal Weather Stations






























Interactive Weather Map New forecast layout! Learn more

10-Day Weather Forecast

Advertisements
Track Severe Weather on mobile